Merkel, Texas
Current Conditions -  °F | °C
As of 2:58 PM on Sunday 21 Dec 2014 (Local Time) from KDYS Reporting Station
Clear Clear  
Wind Chill: 62°   Ceiling: Unl
Heat Index: 62°   Visibility: 10mi
Dew Point: 41°   Wind: 18mph
Humidity: 47%   Direction: 200°SSW
Pressure: 29.76"   Gusts: NA
Location:  32.47°N, 100.01°W
Report Text: KDYS 212058Z AUTO 20016KT 10SM CLR 17/05 A2976 RMK AO2 SLP064 T01660051 57045 $
Loading
Personal Weather Stations






























Interactive Weather Map New forecast layout! Learn more

10-Day Weather Forecast

Advertisements
Track Severe Weather on mobile